createdAt,value
2019-03-30T00:01:05.113Z,54.87
2019-03-30T00:02:11.051Z,54.92
2019-03-30T00:03:15.731Z,54.93
2019-03-30T00:04:20.342Z,55.01
2019-03-30T00:05:25.038Z,55.10
2019-03-30T00:06:29.913Z,55.09
2019-03-30T00:07:34.672Z,55.02
2019-03-30T00:08:39.034Z,54.96
2019-03-30T00:09:43.725Z,55.00
2019-03-30T00:10:48.584Z,55.00
2019-03-30T00:11:53.451Z,55.02
2019-03-30T00:12:58.213Z,55.02
2019-03-30T00:14:03.071Z,55.04
2019-03-30T00:15:07.860Z,55.11
2019-03-30T00:16:12.812Z,55.07
2019-03-30T00:17:17.914Z,55.04
2019-03-30T00:18:22.356Z,55.01
2019-03-30T00:19:34.823Z,55.03
2019-03-30T00:20:33.193Z,55.04
2019-03-30T00:21:37.887Z,54.97
2019-03-30T00:22:42.837Z,54.95
2019-03-30T00:23:47.516Z,54.95
2019-03-30T00:24:52.467Z,54.94
2019-03-30T00:25:57.234Z,54.99
2019-03-30T00:27:01.942Z,54.99
2019-03-30T00:28:06.711Z,55.00
2019-03-30T00:29:11.674Z,55.06
2019-03-30T00:30:19.010Z,55.15
2019-03-30T00:31:22.363Z,55.29
2019-03-30T00:32:26.978Z,55.38
2019-03-30T00:33:31.595Z,55.55
2019-03-30T00:34:36.115Z,55.84
2019-03-30T00:35:40.561Z,56.23
2019-03-30T00:36:45.427Z,56.48
2019-03-30T00:37:50.348Z,56.31
2019-03-30T00:38:55.209Z,56.16
2019-03-30T00:39:59.807Z,56.04
2019-03-30T00:41:04.999Z,56.01
2019-03-30T00:42:09.911Z,55.97
2019-03-30T00:43:14.599Z,55.94
2019-03-30T00:44:19.201Z,55.97
2019-03-30T00:45:23.962Z,56.01
2019-03-30T00:46:28.400Z,56.12
2019-03-30T00:47:32.858Z,56.20
2019-03-30T00:48:37.788Z,56.31
2019-03-30T00:49:48.970Z,56.46
2019-03-30T00:50:49.061Z,56.73
2019-03-30T00:51:53.767Z,56.92
2019-03-30T00:52:58.636Z,57.14
2019-03-30T00:54:03.325Z,57.22
2019-03-30T00:55:08.415Z,57.20
2019-03-30T00:56:13.337Z,57.15
2019-03-30T00:57:17.946Z,57.17
2019-03-30T00:58:25.508Z,57.20
2019-03-30T00:59:29.044Z,57.23
2019-03-30T01:00:33.888Z,57.19
2019-03-30T01:01:38.547Z,57.15
2019-03-30T01:02:43.318Z,57.19
2019-03-30T01:03:47.767Z,57.21
2019-03-30T01:04:52.444Z,57.26
2019-03-30T01:05:58.329Z,57.38
2019-03-30T01:07:03.849Z,57.35
2019-03-30T01:08:08.636Z,57.27
2019-03-30T01:09:13.010Z,57.16
2019-03-30T01:10:17.540Z,57.09
2019-03-30T01:11:22.803Z,56.95
2019-03-30T01:12:27.750Z,56.81
2019-03-30T01:13:32.676Z,56.73
2019-03-30T01:14:37.038Z,56.73
2019-03-30T01:15:41.551Z,56.78
2019-03-30T01:16:46.242Z,56.78
2019-03-30T01:17:50.725Z,56.71
2019-03-30T01:18:55.424Z,56.66
2019-03-30T01:20:03.040Z,56.62
2019-03-30T01:21:06.035Z,56.62
2019-03-30T01:22:11.078Z,56.57
2019-03-30T01:23:15.768Z,56.57
2019-03-30T01:24:20.499Z,56.62
2019-03-30T01:25:25.442Z,56.61
2019-03-30T01:26:30.456Z,56.60
2019-03-30T01:27:35.072Z,56.54
2019-03-30T01:28:39.750Z,56.51
2019-03-30T01:29:44.678Z,56.47
2019-03-30T01:30:49.367Z,56.47
2019-03-30T01:31:54.139Z,56.46
2019-03-30T01:32:58.917Z,56.48
2019-03-30T01:34:03.606Z,56.53
2019-03-30T01:35:08.787Z,56.52
2019-03-30T01:36:13.517Z,56.51
2019-03-30T01:37:18.386Z,56.52
2019-03-30T01:38:23.005Z,56.53
2019-03-30T01:39:28.115Z,56.50
2019-03-30T01:40:32.794Z,56.50
2019-03-30T01:41:37.493Z,56.45
2019-03-30T01:42:42.434Z,56.47
2019-03-30T01:43:47.344Z,56.49
2019-03-30T01:44:52.000Z,56.48
2019-03-30T01:45:56.437Z,56.43
2019-03-30T01:47:01.213Z,56.38
2019-03-30T01:48:06.294Z,56.37
2019-03-30T01:49:11.063Z,56.37
2019-03-30T01:50:17.734Z,56.40
2019-03-30T01:51:22.007Z,56.37
2019-03-30T01:52:26.955Z,56.38
2019-03-30T01:53:31.327Z,56.41
2019-03-30T01:54:35.762Z,56.44
2019-03-30T01:55:40.443Z,56.46
2019-03-30T01:56:45.173Z,56.52
2019-03-30T01:57:50.030Z,56.58
2019-03-30T01:58:54.480Z,56.51
2019-03-30T01:59:59.092Z,56.47
2019-03-30T02:01:04.271Z,56.49
2019-03-30T02:02:08.707Z,56.56
2019-03-30T02:03:13.806Z,56.61
2019-03-30T02:04:18.508Z,56.72
2019-03-30T02:05:23.266Z,56.79
2019-03-30T02:06:27.875Z,56.94
2019-03-30T02:07:32.489Z,57.23
2019-03-30T02:08:37.019Z,57.40
2019-03-30T02:09:41.634Z,57.61
2019-03-30T02:10:46.821Z,57.75
2019-03-30T02:11:51.511Z,57.77
2019-03-30T02:12:55.868Z,57.74
2019-03-30T02:14:00.499Z,57.73
2019-03-30T02:15:05.985Z,57.76
2019-03-30T02:16:10.849Z,57.84
2019-03-30T02:17:15.377Z,57.82
2019-03-30T02:18:20.072Z,57.87
2019-03-30T02:19:24.867Z,57.94
2019-03-30T02:20:38.443Z,58.02
2019-03-30T02:21:43.144Z,58.13
2019-03-30T02:22:47.756Z,58.17
2019-03-30T02:23:52.708Z,58.28
2019-03-30T02:24:57.482Z,58.39
2019-03-30T02:26:01.850Z,58.50
2019-03-30T02:27:06.377Z,58.54
2019-03-30T02:28:10.893Z,58.48
2019-03-30T02:29:15.516Z,58.38
2019-03-30T02:30:20.117Z,58.26
2019-03-30T02:31:24.551Z,58.13
2019-03-30T02:32:28.997Z,58.04
2019-03-30T02:33:33.676Z,57.96
2019-03-30T02:34:38.050Z,57.92
2019-03-30T02:35:43.133Z,57.94
2019-03-30T02:36:48.001Z,57.94
2019-03-30T02:37:52.653Z,57.96
2019-03-30T02:38:57.135Z,57.99
2019-03-30T02:40:01.741Z,57.97
2019-03-30T02:41:06.344Z,57.90
2019-03-30T02:42:10.956Z,57.82
2019-03-30T02:43:15.378Z,57.80
2019-03-30T02:44:20.261Z,57.79
2019-03-30T02:45:24.702Z,57.79
2019-03-30T02:46:29.307Z,57.86
2019-03-30T02:47:34.154Z,57.99
2019-03-30T02:48:38.764Z,58.25
2019-03-30T02:49:43.449Z,58.58
2019-03-30T02:50:50.606Z,58.82
2019-03-30T02:51:55.134Z,58.98
2019-03-30T02:53:00.060Z,59.14
2019-03-30T02:54:04.828Z,59.23
2019-03-30T02:55:12.605Z,59.33
2019-03-30T02:56:16.012Z,59.43
2019-03-30T02:57:20.367Z,59.51
2019-03-30T02:58:25.377Z,59.47
2019-03-30T02:59:29.760Z,59.29
2019-03-30T03:00:34.609Z,59.18
2019-03-30T03:01:38.977Z,59.07
2019-03-30T03:02:43.658Z,58.96
2019-03-30T03:03:48.346Z,59.00
2019-03-30T03:04:52.879Z,58.95
2019-03-30T03:05:57.812Z,58.82
2019-03-30T03:07:02.739Z,58.66
2019-03-30T03:08:07.109Z,58.57
2019-03-30T03:09:11.611Z,58.57
2019-03-30T03:10:16.519Z,58.70
2019-03-30T03:11:21.033Z,58.81
2019-03-30T03:12:25.723Z,58.82
2019-03-30T03:13:30.496Z,58.72
2019-03-30T03:14:35.179Z,58.67
2019-03-30T03:15:39.871Z,58.61
2019-03-30T03:16:44.704Z,58.55
2019-03-30T03:17:49.143Z,58.46
2019-03-30T03:18:53.590Z,58.42
2019-03-30T03:19:58.540Z,58.40
2019-03-30T03:21:08.075Z,58.41
2019-03-30T03:22:09.894Z,58.43
2019-03-30T03:23:14.649Z,58.45
2019-03-30T03:24:19.017Z,58.42
2019-03-30T03:25:23.723Z,58.40
2019-03-30T03:26:28.164Z,58.38
2019-03-30T03:27:32.920Z,58.38
2019-03-30T03:28:37.357Z,58.47
2019-03-30T03:29:43.916Z,58.88
2019-03-30T03:30:48.611Z,59.05
2019-03-30T03:31:53.225Z,59.23
2019-03-30T03:32:57.588Z,59.30
2019-03-30T03:34:02.185Z,59.39
2019-03-30T03:35:06.857Z,59.46
2019-03-30T03:36:11.288Z,59.51
2019-03-30T03:37:16.051Z,59.54
2019-03-30T03:38:20.417Z,59.56
2019-03-30T03:39:25.114Z,59.55
2019-03-30T03:40:29.799Z,59.58
2019-03-30T03:41:34.475Z,59.77
2019-03-30T03:42:38.917Z,59.89
2019-03-30T03:43:43.673Z,60.03
2019-03-30T03:44:48.541Z,60.25
2019-03-30T03:45:53.229Z,60.46
2019-03-30T03:46:57.833Z,60.61
2019-03-30T03:48:02.592Z,60.72
2019-03-30T03:49:07.037Z,60.74
2019-03-30T03:50:25.701Z,60.74
2019-03-30T03:51:30.560Z,60.69
2019-03-30T03:52:35.266Z,60.59
2019-03-30T03:53:39.806Z,60.50
2019-03-30T03:54:46.094Z,60.40
2019-03-30T03:55:50.830Z,60.22
2019-03-30T03:56:56.158Z,60.04
2019-03-30T03:58:01.890Z,59.87
2019-03-30T03:59:08.104Z,59.85
2019-03-30T04:00:12.886Z,59.87
2019-03-30T04:01:20.009Z,59.89
2019-03-30T04:02:25.986Z,59.87
2019-03-30T04:03:33.693Z,59.80
2019-03-30T04:04:39.789Z,59.75
2019-03-30T04:05:47.075Z,59.68
2019-03-30T04:06:52.211Z,59.71
2019-03-30T04:07:59.207Z,59.73
2019-03-30T04:09:05.999Z,59.86
2019-03-30T04:10:10.865Z,59.99
2019-03-30T04:11:16.260Z,60.10
2019-03-30T04:12:23.568Z,60.18
2019-03-30T04:13:30.185Z,60.32
2019-03-30T04:14:37.767Z,60.47
2019-03-30T04:15:42.297Z,60.52
2019-03-30T04:16:46.741Z,60.53
2019-03-30T04:17:51.674Z,60.60
2019-03-30T04:18:56.115Z,60.73
2019-03-30T04:20:01.049Z,60.85
2019-03-30T04:21:05.504Z,60.94
2019-03-30T04:22:10.117Z,61.00
2019-03-30T04:23:14.645Z,61.12
2019-03-30T04:24:19.252Z,61.24
2019-03-30T04:25:24.184Z,61.28
2019-03-30T04:26:29.048Z,61.25
2019-03-30T04:27:33.905Z,61.30
2019-03-30T04:28:38.516Z,61.32
2019-03-30T04:29:43.130Z,61.38
2019-03-30T04:30:47.831Z,61.43
2019-03-30T04:31:52.439Z,61.40
2019-03-30T04:32:57.361Z,61.44
2019-03-30T04:34:01.723Z,61.64
2019-03-30T04:35:06.953Z,61.76
2019-03-30T04:36:11.596Z,61.86
2019-03-30T04:37:16.465Z,61.95
2019-03-30T04:38:21.324Z,62.11
2019-03-30T04:39:25.764Z,62.17
2019-03-30T04:40:30.287Z,62.30
2019-03-30T04:41:34.787Z,62.35
2019-03-30T04:42:39.725Z,62.38
2019-03-30T04:43:44.335Z,62.31
2019-03-30T04:44:48.776Z,62.40
2019-03-30T04:45:53.471Z,62.42
2019-03-30T04:46:58.335Z,62.42
2019-03-30T04:48:03.026Z,62.37
2019-03-30T04:49:07.992Z,62.36
2019-03-30T04:50:12.660Z,62.37
2019-03-30T04:51:17.038Z,62.32
2019-03-30T04:52:21.719Z,62.37
2019-03-30T04:53:26.082Z,62.37
2019-03-30T04:54:31.184Z,62.35
2019-03-30T04:55:35.896Z,62.33
2019-03-30T04:56:40.274Z,62.35
2019-03-30T04:57:44.635Z,62.39
2019-03-30T04:58:49.241Z,62.38
2019-03-30T04:59:53.691Z,62.39
2019-03-30T05:00:58.872Z,62.37
2019-03-30T05:02:03.576Z,62.41
2019-03-30T05:03:08.263Z,62.43
2019-03-30T05:04:13.170Z,62.48
2019-03-30T05:05:17.923Z,62.49
2019-03-30T05:06:22.871Z,62.58
2019-03-30T05:07:27.788Z,62.59
2019-03-30T05:08:32.232Z,62.60
2019-03-30T05:09:36.838Z,62.59
2019-03-30T05:10:41.277Z,62.56
2019-03-30T05:11:46.397Z,62.57
2019-03-30T05:12:51.014Z,62.51
2019-03-30T05:13:55.708Z,62.51
2019-03-30T05:15:00.648Z,62.45
2019-03-30T05:16:05.595Z,62.27
2019-03-30T05:17:10.368Z,62.18
2019-03-30T05:18:15.231Z,62.13
2019-03-30T05:19:19.851Z,62.12
2019-03-30T05:20:24.368Z,62.13
2019-03-30T05:21:28.744Z,62.17
2019-03-30T05:22:33.178Z,62.22
2019-03-30T05:23:37.943Z,62.31
2019-03-30T05:24:42.560Z,62.43
2019-03-30T05:25:47.255Z,62.43
2019-03-30T05:26:51.704Z,62.50
2019-03-30T05:27:56.643Z,62.54
2019-03-30T05:29:01.345Z,62.57
2019-03-30T05:30:06.888Z,62.59
2019-03-30T05:31:11.644Z,62.61
2019-03-30T05:32:16.354Z,62.61
2019-03-30T05:33:21.580Z,62.70
2019-03-30T05:34:26.288Z,62.74
2019-03-30T05:35:30.652Z,62.76
2019-03-30T05:36:35.111Z,62.73
2019-03-30T05:37:39.799Z,62.72
2019-03-30T05:38:44.160Z,62.71
2019-03-30T05:39:49.023Z,62.66
2019-03-30T05:40:53.963Z,62.60
2019-03-30T05:41:58.420Z,62.44
2019-03-30T05:43:03.523Z,62.34
2019-03-30T05:44:08.710Z,62.35
2019-03-30T05:45:13.334Z,62.35
2019-03-30T05:46:18.272Z,62.39
2019-03-30T05:47:23.310Z,62.38
2019-03-30T05:48:27.999Z,62.42
2019-03-30T05:49:32.862Z,62.48
2019-03-30T05:50:37.870Z,62.58
2019-03-30T05:51:42.992Z,62.60
2019-03-30T05:52:47.751Z,62.56
2019-03-30T05:53:52.187Z,62.58
2019-03-30T05:54:57.048Z,62.60
2019-03-30T05:56:01.466Z,62.52
2019-03-30T05:57:05.788Z,62.56
2019-03-30T05:58:10.732Z,62.57
2019-03-30T05:59:15.607Z,62.54
2019-03-30T06:00:22.424Z,62.67
2019-03-30T06:01:27.121Z,62.75
2019-03-30T06:02:31.746Z,62.83
2019-03-30T06:03:36.355Z,62.89
2019-03-30T06:04:40.720Z,62.97
2019-03-30T06:05:45.325Z,62.98
2019-03-30T06:06:50.274Z,62.99
2019-03-30T06:07:54.988Z,62.95
2019-03-30T06:08:59.675Z,62.91
2019-03-30T06:10:04.367Z,62.79
2019-03-30T06:11:09.055Z,62.69
2019-03-30T06:12:13.927Z,62.67
2019-03-30T06:13:18.547Z,62.63
2019-03-30T06:14:23.158Z,62.61
2019-03-30T06:15:28.267Z,62.60
2019-03-30T06:16:33.570Z,62.60
2019-03-30T06:17:38.027Z,62.56
2019-03-30T06:18:43.171Z,62.51
2019-03-30T06:19:48.023Z,62.53
2019-03-30T06:20:52.639Z,62.52
2019-03-30T06:21:57.263Z,62.44
2019-03-30T06:23:01.706Z,62.32
2019-03-30T06:24:06.148Z,62.26
2019-03-30T06:25:10.986Z,62.11
2019-03-30T06:26:15.741Z,61.89
2019-03-30T06:27:20.370Z,61.57
2019-03-30T06:28:25.226Z,61.20
2019-03-30T06:29:29.834Z,61.20
2019-03-30T06:30:34.514Z,61.02
2019-03-30T06:31:39.452Z,60.90
2019-03-30T06:32:44.482Z,60.60
2019-03-30T06:33:48.921Z,60.68
2019-03-30T06:34:53.524Z,60.59
2019-03-30T06:35:57.894Z,60.43
2019-03-30T06:37:02.347Z,60.22
2019-03-30T06:38:06.783Z,60.04
2019-03-30T06:39:11.395Z,59.77
2019-03-30T06:40:17.391Z,59.54
2019-03-30T06:41:21.832Z,59.37
2019-03-30T06:42:26.207Z,59.24
2019-03-30T06:43:30.888Z,59.12
2019-03-30T06:44:35.495Z,58.98
2019-03-30T06:45:40.439Z,58.91
2019-03-30T06:46:45.133Z,58.78
2019-03-30T06:47:50.179Z,58.68
2019-03-30T06:48:54.543Z,58.63
2019-03-30T06:49:59.165Z,58.44
2019-03-30T06:51:03.536Z,58.35
2019-03-30T06:52:08.229Z,58.11
2019-03-30T06:53:12.929Z,58.15
2019-03-30T06:54:17.864Z,58.26
2019-03-30T06:55:22.564Z,58.30
2019-03-30T06:56:27.255Z,58.22
2019-03-30T06:57:31.644Z,58.21
2019-03-30T06:58:36.085Z,58.18
2019-03-30T06:59:40.448Z,58.19
2019-03-30T07:00:46.476Z,58.33
2019-03-30T07:01:51.897Z,58.35
2019-03-30T07:02:57.154Z,58.50
2019-03-30T07:04:02.608Z,58.57
2019-03-30T07:05:08.983Z,58.72
2019-03-30T07:06:15.658Z,58.78
2019-03-30T07:07:21.139Z,59.02
2019-03-30T07:08:27.829Z,59.29
2019-03-30T07:09:33.455Z,59.57
2019-03-30T07:10:39.277Z,59.81
2019-03-30T07:11:45.046Z,60.04
2019-03-30T07:12:52.641Z,60.13
2019-03-30T07:14:00.307Z,60.18
2019-03-30T07:15:05.899Z,60.25
2019-03-30T07:16:12.079Z,60.41
2019-03-30T07:17:17.425Z,60.63
2019-03-30T07:18:22.676Z,60.71
2019-03-30T07:19:30.744Z,60.77
2019-03-30T07:20:35.762Z,60.75
2019-03-30T07:21:41.040Z,60.73
2019-03-30T07:22:46.496Z,60.76
2019-03-30T07:23:51.451Z,60.63
2019-03-30T07:24:56.993Z,60.62
2019-03-30T07:26:03.826Z,60.64
2019-03-30T07:27:08.484Z,60.77
2019-03-30T07:28:13.057Z,60.89
2019-03-30T07:29:17.736Z,60.79
2019-03-30T07:30:22.517Z,60.72
2019-03-30T07:31:27.804Z,60.64
2019-03-30T07:32:32.204Z,60.59
2019-03-30T07:33:36.643Z,60.71
2019-03-30T07:34:41.820Z,60.62
2019-03-30T07:35:46.287Z,60.68
2019-03-30T07:36:50.950Z,60.67
2019-03-30T07:37:56.389Z,60.64
2019-03-30T07:39:00.833Z,60.62
2019-03-30T07:40:05.562Z,60.61
2019-03-30T07:41:10.330Z,60.50
2019-03-30T07:42:15.020Z,60.48
2019-03-30T07:43:19.467Z,60.53
2019-03-30T07:44:23.833Z,60.48
2019-03-30T07:45:28.273Z,60.46
2019-03-30T07:46:32.888Z,60.48
2019-03-30T07:47:37.707Z,60.39
2019-03-30T07:48:42.571Z,60.18
2019-03-30T07:49:47.053Z,59.98
2019-03-30T07:50:51.410Z,60.00
2019-03-30T07:51:56.413Z,59.83
2019-03-30T07:53:01.653Z,59.92
2019-03-30T07:54:06.906Z,59.84
2019-03-30T07:55:11.520Z,59.56
2019-03-30T07:56:15.969Z,59.33
2019-03-30T07:57:20.842Z,59.35
2019-03-30T07:58:25.788Z,59.00
2019-03-30T07:59:30.228Z,58.85
2019-03-30T08:00:35.166Z,58.71
2019-03-30T08:01:39.535Z,58.80
2019-03-30T08:02:44.078Z,58.89
2019-03-30T08:03:49.453Z,58.89
2019-03-30T08:04:54.223Z,58.92
2019-03-30T08:05:58.667Z,58.99
2019-03-30T08:07:03.036Z,58.87
2019-03-30T08:08:07.419Z,58.66
2019-03-30T08:09:11.941Z,58.66
2019-03-30T08:10:16.708Z,58.57
2019-03-30T08:11:21.652Z,58.45
2019-03-30T08:12:26.171Z,58.36
2019-03-30T08:13:30.581Z,58.40
2019-03-30T08:14:35.043Z,58.37
2019-03-30T08:15:39.993Z,58.41
2019-03-30T08:16:44.412Z,58.46
2019-03-30T08:17:48.805Z,58.47
2019-03-30T08:18:53.248Z,58.36
2019-03-30T08:19:57.706Z,58.25
2019-03-30T08:21:02.684Z,58.15
2019-03-30T08:22:07.451Z,58.12
2019-03-30T08:23:12.373Z,57.92
2019-03-30T08:24:17.809Z,57.79
2019-03-30T08:25:22.344Z,57.55
2019-03-30T08:26:27.216Z,57.51
2019-03-30T08:27:32.507Z,57.40
2019-03-30T08:28:37.212Z,57.33
2019-03-30T08:29:42.412Z,56.95
2019-03-30T08:30:47.181Z,56.63
2019-03-30T08:31:52.115Z,56.19
2019-03-30T08:32:57.079Z,56.29
2019-03-30T08:34:01.835Z,56.23
2019-03-30T08:35:06.996Z,56.22
2019-03-30T08:36:11.976Z,55.97
2019-03-30T08:37:16.436Z,55.77
2019-03-30T08:38:20.898Z,55.61
2019-03-30T08:39:25.613Z,55.39
2019-03-30T08:40:30.503Z,55.39
2019-03-30T08:41:34.968Z,55.34
2019-03-30T08:42:39.665Z,55.25
2019-03-30T08:43:44.370Z,55.23
2019-03-30T08:44:49.337Z,54.83
2019-03-30T08:45:53.960Z,54.74
2019-03-30T08:46:58.333Z,54.74
2019-03-30T08:48:03.332Z,54.74
2019-03-30T08:49:08.156Z,54.64
2019-03-30T08:50:13.740Z,54.31
2019-03-30T08:51:20.773Z,53.78
2019-03-30T08:52:24.691Z,53.54
2019-03-30T08:53:29.320Z,53.63
2019-03-30T08:54:34.190Z,53.61
2019-03-30T08:55:39.127Z,53.26
2019-03-30T08:56:44.001Z,53.26
2019-03-30T08:57:51.210Z,53.02
2019-03-30T08:58:55.836Z,52.74
2019-03-30T09:00:00.531Z,52.69
2019-03-30T09:01:04.980Z,52.59
2019-03-30T09:02:09.350Z,52.43
2019-03-30T09:03:14.376Z,52.12
2019-03-30T09:04:18.981Z,51.82
2019-03-30T09:05:23.420Z,51.08
2019-03-30T09:06:28.108Z,51.08
2019-03-30T09:07:32.619Z,51.18
2019-03-30T09:08:37.321Z,51.24
2019-03-30T09:09:42.277Z,50.72
2019-03-30T09:10:47.133Z,50.65
2019-03-30T09:11:51.741Z,50.08
2019-03-30T09:12:57.674Z,49.42
2019-03-30T09:14:02.620Z,49.60
2019-03-30T09:15:08.067Z,49.70
2019-03-30T09:16:12.518Z,49.87
2019-03-30T09:17:17.432Z,49.92
2019-03-30T09:18:21.897Z,50.13
2019-03-30T09:19:26.417Z,50.34
2019-03-30T09:20:31.105Z,50.22
2019-03-30T09:21:35.966Z,50.20
2019-03-30T09:22:40.409Z,50.00
2019-03-30T09:23:44.872Z,49.78
2019-03-30T09:24:49.561Z,49.12
2019-03-30T09:25:53.940Z,48.95
2019-03-30T09:26:58.558Z,49.00
2019-03-30T09:28:03.485Z,48.88
2019-03-30T09:29:09.305Z,48.79
2019-03-30T09:30:14.311Z,48.86
2019-03-30T09:31:19.417Z,48.91
2019-03-30T09:32:24.604Z,48.94
2019-03-30T09:33:29.241Z,48.67
2019-03-30T09:34:34.230Z,48.19
2019-03-30T09:35:39.519Z,47.71
2019-03-30T09:36:44.884Z,47.91
2019-03-30T09:37:49.745Z,47.70
2019-03-30T09:38:54.479Z,47.04
2019-03-30T09:39:59.017Z,47.16
2019-03-30T09:41:03.473Z,47.29
2019-03-30T09:42:08.343Z,47.24
2019-03-30T09:43:13.031Z,47.22
2019-03-30T09:44:17.413Z,47.38
2019-03-30T09:45:22.031Z,47.00
2019-03-30T09:46:26.893Z,46.73
2019-03-30T09:47:31.335Z,46.53
2019-03-30T09:48:36.196Z,46.87
2019-03-30T09:49:41.332Z,46.96
2019-03-30T09:50:45.848Z,46.42
2019-03-30T09:51:50.545Z,46.49
2019-03-30T09:52:55.407Z,46.56
2019-03-30T09:54:00.042Z,46.47
2019-03-30T09:55:05.031Z,46.35
2019-03-30T09:56:10.052Z,46.26
2019-03-30T09:57:14.756Z,46.18
2019-03-30T09:58:19.281Z,46.30
2019-03-30T09:59:23.994Z,46.29
2019-03-30T10:00:29.690Z,46.19
2019-03-30T10:01:34.560Z,45.66
2019-03-30T10:02:39.003Z,45.72
2019-03-30T10:03:43.376Z,45.42
2019-03-30T10:04:48.281Z,45.07
2019-03-30T10:05:53.067Z,45.17
2019-03-30T10:06:57.792Z,45.51
2019-03-30T10:08:02.386Z,45.67
2019-03-30T10:09:07.978Z,45.36
2019-03-30T10:10:12.580Z,45.29
2019-03-30T10:11:17.278Z,45.49
2019-03-30T10:12:21.907Z,45.54
2019-03-30T10:13:26.437Z,45.41
2019-03-30T10:14:31.146Z,45.25
2019-03-30T10:15:35.847Z,45.26
2019-03-30T10:16:40.220Z,45.10
2019-03-30T10:17:44.677Z,45.05
2019-03-30T10:18:49.309Z,45.04
2019-03-30T10:20:04.362Z,45.04
2019-03-30T10:21:00.540Z,45.05
2019-03-30T10:22:05.089Z,44.83
2019-03-30T10:23:09.473Z,44.83
2019-03-30T10:24:14.128Z,44.69
2019-03-30T10:25:18.673Z,44.69
2019-03-30T10:26:23.697Z,44.63
2019-03-30T10:27:28.572Z,44.36
2019-03-30T10:28:33.028Z,44.07
2019-03-30T10:29:37.986Z,43.76
2019-03-30T10:30:42.687Z,43.36
2019-03-30T10:31:47.394Z,43.31
2019-03-30T10:32:52.269Z,43.20
2019-03-30T10:33:56.720Z,43.28
2019-03-30T10:35:01.185Z,43.15
2019-03-30T10:36:05.640Z,43.04
2019-03-30T10:37:10.273Z,43.13
2019-03-30T10:38:15.149Z,43.12
2019-03-30T10:39:20.049Z,43.12
2019-03-30T10:40:24.506Z,43.05
2019-03-30T10:41:28.880Z,43.11
2019-03-30T10:42:33.262Z,42.48
2019-03-30T10:43:37.717Z,42.37
2019-03-30T10:44:42.608Z,42.16
2019-03-30T10:45:47.061Z,42.16
2019-03-30T10:46:51.829Z,42.03
2019-03-30T10:47:56.290Z,41.72
2019-03-30T10:49:00.660Z,41.29
2019-03-30T10:50:05.941Z,41.13
2019-03-30T10:51:10.816Z,41.27
2019-03-30T10:52:15.441Z,41.47
2019-03-30T10:53:20.130Z,41.25
2019-03-30T10:54:24.841Z,41.13
2019-03-30T10:55:29.207Z,40.99
2019-03-30T10:56:33.910Z,40.76
2019-03-30T10:57:38.592Z,40.50
2019-03-30T10:58:43.200Z,40.57
2019-03-30T10:59:47.987Z,40.32
2019-03-30T11:00:52.603Z,39.91
2019-03-30T11:01:57.543Z,39.47
2019-03-30T11:03:02.324Z,39.09
2019-03-30T11:04:07.096Z,38.88
2019-03-30T11:05:11.882Z,38.68
2019-03-30T11:06:16.580Z,38.46
2019-03-30T11:07:21.441Z,37.87
2019-03-30T11:08:25.934Z,37.82
2019-03-30T11:09:30.313Z,37.84
2019-03-30T11:10:34.929Z,37.63
2019-03-30T11:11:39.616Z,37.24
2019-03-30T11:12:44.230Z,36.41
2019-03-30T11:13:48.742Z,35.91
2019-03-30T11:14:53.692Z,35.97
2019-03-30T11:15:58.699Z,35.63
2019-03-30T11:17:03.684Z,35.47
2019-03-30T11:18:08.043Z,35.21
2019-03-30T11:19:12.652Z,34.24
2019-03-30T11:20:17.418Z,33.63
2019-03-30T11:21:22.277Z,33.50
2019-03-30T11:22:26.641Z,33.33
2019-03-30T11:23:31.513Z,32.85
2019-03-30T11:24:36.140Z,32.87
2019-03-30T11:25:40.769Z,32.74
2019-03-30T11:26:45.139Z,32.78
2019-03-30T11:27:49.756Z,32.79
2019-03-30T11:28:54.200Z,32.77
2019-03-30T11:29:58.898Z,32.57
2019-03-30T11:31:05.389Z,32.46
2019-03-30T11:32:10.065Z,32.30
2019-03-30T11:33:14.827Z,32.30
2019-03-30T11:34:19.512Z,32.24
2019-03-30T11:35:24.534Z,32.06
2019-03-30T11:36:29.214Z,31.98
2019-03-30T11:37:33.904Z,31.86
2019-03-30T11:38:38.267Z,31.70
2019-03-30T11:39:42.954Z,31.67
2019-03-30T11:40:47.731Z,31.27
2019-03-30T11:41:52.334Z,30.93
2019-03-30T11:42:57.014Z,30.69
2019-03-30T11:44:01.436Z,30.54
2019-03-30T11:45:06.336Z,30.29
2019-03-30T11:46:11.026Z,30.23
2019-03-30T11:47:15.794Z,29.96
2019-03-30T11:48:20.241Z,29.26
2019-03-30T11:49:24.609Z,29.26
2019-03-30T11:50:29.062Z,29.47
2019-03-30T11:51:34.003Z,29.51
2019-03-30T11:52:39.192Z,29.44
2019-03-30T11:53:43.808Z,29.34
2019-03-30T11:54:48.588Z,29.42
2019-03-30T11:55:53.195Z,29.14
2019-03-30T11:56:57.637Z,29.28
2019-03-30T11:58:02.400Z,29.01
2019-03-30T11:59:07.184Z,28.83
2019-03-30T12:00:11.995Z,28.58
2019-03-30T12:01:16.448Z,28.66
2019-03-30T12:02:27.756Z,28.72
2019-03-30T12:03:27.251Z,28.92
2019-03-30T12:04:31.952Z,29.02
2019-03-30T12:05:36.978Z,29.17
2019-03-30T12:06:41.496Z,28.77
2019-03-30T12:07:46.184Z,28.59
2019-03-30T12:08:51.188Z,28.45
2019-03-30T12:09:56.138Z,28.52
2019-03-30T12:11:00.831Z,28.77
2019-03-30T12:12:05.594Z,28.87
2019-03-30T12:13:10.036Z,28.86
2019-03-30T12:14:14.984Z,28.85
2019-03-30T12:15:19.517Z,28.79
2019-03-30T12:16:24.519Z,28.44
2019-03-30T12:17:29.465Z,28.56
2019-03-30T12:18:33.830Z,28.46
2019-03-30T12:19:38.516Z,28.37
2019-03-30T12:20:43.391Z,28.27
2019-03-30T12:21:48.016Z,28.22
2019-03-30T12:22:52.462Z,28.29
2019-03-30T12:23:56.830Z,28.19
2019-03-30T12:25:02.108Z,28.20
2019-03-30T12:26:07.427Z,28.24
2019-03-30T12:27:11.794Z,28.16
2019-03-30T12:28:16.654Z,28.06
2019-03-30T12:29:21.107Z,27.98
2019-03-30T12:30:25.881Z,27.82
2019-03-30T12:31:30.541Z,27.73
2019-03-30T12:32:35.240Z,27.75
2019-03-30T12:33:40.424Z,27.59
2019-03-30T12:34:44.867Z,27.50
2019-03-30T12:35:49.355Z,27.33
2019-03-30T12:36:55.835Z,27.06
2019-03-30T12:38:00.713Z,26.84
2019-03-30T12:39:06.865Z,26.52
2019-03-30T12:40:11.595Z,26.27
2019-03-30T12:41:16.287Z,26.03
2019-03-30T12:42:20.732Z,26.08
2019-03-30T12:43:25.435Z,25.96
2019-03-30T12:44:30.395Z,26.02
2019-03-30T12:45:34.856Z,26.10
2019-03-30T12:46:39.536Z,26.26
2019-03-30T12:47:43.980Z,26.41
2019-03-30T12:48:48.593Z,26.38
2019-03-30T12:49:53.366Z,26.17
2019-03-30T12:50:58.320Z,26.34
2019-03-30T12:52:02.758Z,26.13
2019-03-30T12:53:07.524Z,25.88
2019-03-30T12:54:12.206Z,25.88
2019-03-30T12:55:16.903Z,25.98
2019-03-30T12:56:21.845Z,25.92
2019-03-30T12:57:26.788Z,25.81
2019-03-30T12:58:31.399Z,25.79
2019-03-30T12:59:36.093Z,25.70
2019-03-30T13:00:40.710Z,25.60
2019-03-30T13:01:45.152Z,25.53
2019-03-30T13:02:49.684Z,25.46
2019-03-30T13:03:54.373Z,25.44
2019-03-30T13:04:58.982Z,25.30
2019-03-30T13:06:03.683Z,25.05
2019-03-30T13:07:08.289Z,25.00
2019-03-30T13:08:12.731Z,24.80
2019-03-30T13:09:17.258Z,24.44
2019-03-30T13:10:22.024Z,24.46
2019-03-30T13:11:26.656Z,24.49
2019-03-30T13:12:31.523Z,24.57
2019-03-30T13:13:35.959Z,24.60
2019-03-30T13:14:40.570Z,24.50
2019-03-30T13:15:45.199Z,24.28
2019-03-30T13:16:49.635Z,24.27
2019-03-30T13:17:54.006Z,24.43
2019-03-30T13:18:58.695Z,23.21
2019-03-30T13:20:03.622Z,22.45
2019-03-30T13:21:08.002Z,22.42
2019-03-30T13:22:12.688Z,22.12
2019-03-30T13:23:17.695Z,21.84
2019-03-30T13:24:22.534Z,21.82
2019-03-30T13:25:27.224Z,21.97
2019-03-30T13:26:31.687Z,21.95
2019-03-30T13:27:36.458Z,21.90
2019-03-30T13:28:40.824Z,21.92
2019-03-30T13:29:45.520Z,21.67
2019-03-30T13:30:50.052Z,21.84
2019-03-30T13:31:54.418Z,22.19
2019-03-30T13:32:58.778Z,22.00
2019-03-30T13:34:03.474Z,21.62
2019-03-30T13:35:08.003Z,21.27
2019-03-30T13:36:13.006Z,20.91
2019-03-30T13:37:18.359Z,20.34
2019-03-30T13:38:25.760Z,20.43
2019-03-30T13:39:29.137Z,20.29
2019-03-30T13:40:33.582Z,20.46
2019-03-30T13:41:38.111Z,20.78
2019-03-30T13:42:42.474Z,20.83
2019-03-30T13:43:46.826Z,20.94
2019-03-30T13:44:51.438Z,20.95
2019-03-30T13:45:56.388Z,20.94
2019-03-30T13:47:01.004Z,21.01
2019-03-30T13:48:05.523Z,20.75
2019-03-30T13:49:10.210Z,20.75
2019-03-30T13:50:15.282Z,20.73
2019-03-30T13:51:19.707Z,20.54
2019-03-30T13:52:24.541Z,20.48
2019-03-30T13:53:29.490Z,20.21
2019-03-30T13:54:33.924Z,20.09
2019-03-30T13:55:38.539Z,20.20